Time;durP1;ratioP1;P1;durP2;ratioP2;P2;SDS_P1;SDS_P2;PMS_P1;PMS_P2;Temp;Humidity;BMP_temperature;BMP_pressure;BME280_temperature;BME280_humidity;BME280_pressure;Samples;Min_cycle;Max_cycle;Signal;HPM_P1;HPM_P2
2023/04/09 00:01:59;;;;;;;59.33;34.17;;;;;;;;;;5072395;28;20035;-74
2023/04/09 00:04:25;;;;;;;56.95;33.35;;;;;;;;;;5072423;28;20020;-73
2023/04/09 00:06:51;;;;;;;57.13;32.20;;;;;;;;;;5071982;28;20020;-73
2023/04/09 00:09:17;;;;;;;55.08;32.53;;;;;;;;;;5071350;28;20040;-74
2023/04/09 00:11:43;;;;;;;56.67;33.47;;;;;;;;;;5072414;28;20029;-73
2023/04/09 00:14:09;;;;;;;54.38;31.90;;;;;;;;;;5072134;28;20398;-74
2023/04/09 00:16:35;;;;;;;55.28;34.05;;;;;;;;;;5070799;28;20020;-74
2023/04/09 00:19:01;;;;;;;56.05;33.78;;;;;;;;;;5071066;28;20536;-74
2023/04/09 00:21:27;;;;;;;58.75;33.88;;;;;;;;;;5071856;28;20012;-74
2023/04/09 00:23:53;;;;;;;53.90;32.78;;;;;;;;;;5071846;28;20090;-73
2023/04/09 00:26:20;;;;;;;57.38;34.30;;;;;;;;;;5071795;28;20027;-74
2023/04/09 00:28:46;;;;;;;60.10;33.47;;;;;;;;;;5071118;28;20031;-73
2023/04/09 00:31:12;;;;;;;55.47;32.75;;;;;;;;;;5071765;28;20103;-74
2023/04/09 00:33:38;;;;;;;61.97;34.22;;;;;;;;;;5071650;28;20025;-73
2023/04/09 00:36:04;;;;;;;59.67;34.63;;;;;;;;;;5071922;28;20395;-73
2023/04/09 00:38:30;;;;;;;58.45;35.30;;;;;;;;;;5070886;28;20433;-73
2023/04/09 00:40:56;;;;;;;62.20;35.95;;;;;;;;;;5071580;28;20023;-74
2023/04/09 00:43:22;;;;;;;66.03;37.95;;;;;;;;;;5071621;28;20017;-74
2023/04/09 00:45:49;;;;;;;56.38;34.47;;;;;;;;;;5071591;28;20096;-74
2023/04/09 00:48:15;;;;;;;62.20;35.90;;;;;;;;;;5070924;28;20035;-74
2023/04/09 00:50:41;;;;;;;59.47;35.03;;;;;;;;;;5071521;28;20553;-74
2023/04/09 00:53:08;;;;;;;59.85;34.08;;;;;;;;;;5071230;28;20036;-74
2023/04/09 00:55:35;;;;;;;57.00;33.55;;;;;;;;;;5071450;28;20538;-73
2023/04/09 00:58:01;;;;;;;57.25;33.15;;;;;;;;;;5070403;28;20028;-73
2023/04/09 01:00:27;;;;;;;53.47;33.78;;;;;;;;;;5071482;28;20017;-74
2023/04/09 01:02:56;;;;;;;55.75;34.00;;;;;;;;;;5071443;28;20031;-74
2023/04/09 01:05:24;;;;;;;60.75;35.75;;;;;;;;;;5071014;28;20123;-74
2023/04/09 01:08:06;;;;;;;56.72;34.53;;;;;;;;;;5070566;28;20037;-72
2023/04/09 01:10:35;;;;;;;54.47;33.33;;;;;;;;;;5071334;28;20048;-73
2023/04/09 01:13:01;;;;;;;61.13;33.72;;;;;;;;;;5071282;28;20126;-74
2023/04/09 01:15:30;;;;;;;52.95;33.13;;;;;;;;;;5069957;28;20257;-74
2023/04/09 01:18:01;;;;;;;58.75;33.42;;;;;;;;;;5070361;28;20032;-74
2023/04/09 01:20:40;;;;;;;56.10;34.08;;;;;;;;;;5071502;28;20399;-74
2023/04/09 01:23:38;;;;;;;54.80;33.50;;;;;;;;;;5071363;28;20025;-74
2023/04/09 01:26:18;;;;;;;51.60;32.05;;;;;;;;;;5058996;28;20513;-74
2023/04/09 01:28:45;;;;;;;52.72;33.15;;;;;;;;;;5070527;28;20025;-74
2023/04/09 01:31:13;;;;;;;53.15;32.35;;;;;;;;;;5071383;28;20039;-74
2023/04/09 01:33:40;;;;;;;51.95;31.92;;;;;;;;;;5071471;28;20173;-74
2023/04/09 01:36:06;;;;;;;54.22;33.03;;;;;;;;;;5071897;28;20024;-74
2023/04/09 01:38:35;;;;;;;49.47;31.13;;;;;;;;;;5070602;28;20032;-74
2023/04/09 01:41:01;;;;;;;52.20;31.70;;;;;;;;;;5072125;28;20036;-75
2023/04/09 01:43:28;;;;;;;56.90;32.35;;;;;;;;;;5072118;28;20082;-74
2023/04/09 01:45:54;;;;;;;52.45;32.35;;;;;;;;;;5071984;28;20052;-74
2023/04/09 01:48:20;;;;;;;50.20;29.77;;;;;;;;;;5070539;28;20051;-74
2023/04/09 01:50:47;;;;;;;49.17;30.63;;;;;;;;;;5072233;28;20038;-74
2023/04/09 01:53:13;;;;;;;52.50;32.20;;;;;;;;;;5071278;28;20211;-75
2023/04/09 01:55:39;;;;;;;48.83;31.02;;;;;;;;;;5070999;28;20032;-72
2023/04/09 01:58:05;;;;;;;53.85;32.80;;;;;;;;;;5069919;28;20031;-75
2023/04/09 02:00:35;;;;;;;53.97;33.13;;;;;;;;;;5070815;28;20099;-72
2023/04/09 02:03:06;;;;;;;51.72;33.55;;;;;;;;;;5070836;28;20025;-74
2023/04/09 02:05:35;;;;;;;54.83;33.22;;;;;;;;;;5072908;28;20078;-74
2023/04/09 02:08:02;;;;;;;56.25;33.65;;;;;;;;;;5074321;28;20725;-73
2023/04/09 02:10:30;;;;;;;57.97;34.88;;;;;;;;;;5082998;28;20052;-77
2023/04/09 02:12:57;;;;;;;62.65;36.33;;;;;;;;;;5092087;28;20020;-73
2023/04/09 02:15:24;;;;;;;57.17;34.38;;;;;;;;;;5089912;28;20084;-74
2023/04/09 02:17:50;;;;;;;54.60;32.33;;;;;;;;;;5082255;28;20394;-75
2023/04/09 02:20:17;;;;;;;58.72;33.88;;;;;;;;;;5076101;28;20096;-73
2023/04/09 02:22:43;;;;;;;54.90;33.13;;;;;;;;;;5076233;28;20032;-73
2023/04/09 02:25:09;;;;;;;59.97;33.20;;;;;;;;;;5075134;28;20103;-74
2023/04/09 02:27:35;;;;;;;53.78;32.30;;;;;;;;;;5074045;28;20028;-73
2023/04/09 02:30:01;;;;;;;53.30;33.17;;;;;;;;;;5074460;28;20031;-73
2023/04/09 02:32:27;;;;;;;53.85;33.13;;;;;;;;;;5074330;28;20025;-73
2023/04/09 02:34:53;;;;;;;55.50;34.60;;;;;;;;;;5072852;28;20062;-74
2023/04/09 02:37:19;;;;;;;54.55;33.17;;;;;;;;;;5073425;28;20021;-73
2023/04/09 02:39:45;;;;;;;52.67;31.73;;;;;;;;;;5074169;28;20036;-72
2023/04/09 02:42:11;;;;;;;51.22;29.17;;;;;;;;;;5074317;28;20039;-74
2023/04/09 02:44:37;;;;;;;52.00;31.80;;;;;;;;;;5074145;28;20029;-74
2023/04/09 02:47:04;;;;;;;53.83;30.77;;;;;;;;;;5073419;28;20013;-72
2023/04/09 02:49:30;;;;;;;53.03;31.50;;;;;;;;;;5073423;28;20126;-73
2023/04/09 02:51:56;;;;;;;52.00;29.58;;;;;;;;;;5073876;28;20020;-74
2023/04/09 02:54:22;;;;;;;53.90;32.97;;;;;;;;;;5073682;28;20520;-73
2023/04/09 02:56:48;;;;;;;54.65;33.65;;;;;;;;;;5073757;28;20025;-73
2023/04/09 02:59:14;;;;;;;52.92;32.63;;;;;;;;;;5072779;28;20050;-73
2023/04/09 03:01:40;;;;;;;50.05;30.70;;;;;;;;;;5073505;28;20029;-73
2023/04/09 03:04:06;;;;;;;52.78;32.30;;;;;;;;;;5073574;28;20020;-73
2023/04/09 03:06:33;;;;;;;54.95;33.13;;;;;;;;;;5074211;28;20066;-75
2023/04/09 03:08:59;;;;;;;57.33;33.42;;;;;;;;;;5073533;28;20029;-73
2023/04/09 03:11:25;;;;;;;54.35;32.15;;;;;;;;;;5074373;28;20111;-72
2023/04/09 03:13:51;;;;;;;54.33;32.40;;;;;;;;;;5074371;28;20944;-73
2023/04/09 03:16:17;;;;;;;54.85;32.55;;;;;;;;;;5073156;28;20055;-72
2023/04/09 03:18:43;;;;;;;55.97;32.60;;;;;;;;;;5072229;28;20126;-72
2023/04/09 03:21:09;;;;;;;58.40;33.83;;;;;;;;;;5071882;28;20029;-72
2023/04/09 03:23:35;;;;;;;60.55;35.17;;;;;;;;;;5073178;28;20461;-73
2023/04/09 03:26:02;;;;;;;56.30;33.55;;;;;;;;;;5073133;28;20044;-74
2023/04/09 03:28:28;;;;;;;53.22;33.35;;;;;;;;;;5072243;28;20478;-73
2023/04/09 03:30:54;;;;;;;51.95;31.80;;;;;;;;;;5072885;28;20036;-72
2023/04/09 03:33:20;;;;;;;54.40;31.95;;;;;;;;;;5072987;28;20020;-74
2023/04/09 03:35:46;;;;;;;53.80;31.35;;;;;;;;;;5073015;28;20478;-73
2023/04/09 03:38:12;;;;;;;51.70;31.73;;;;;;;;;;5072168;28;20028;-73
2023/04/09 03:40:38;;;;;;;53.00;31.25;;;;;;;;;;5072863;28;20021;-74
2023/04/09 03:43:04;;;;;;;50.35;30.30;;;;;;;;;;5072761;28;20024;-73
2023/04/09 03:45:30;;;;;;;47.95;29.48;;;;;;;;;;5072732;28;20065;-74
2023/04/09 03:47:56;;;;;;;52.13;31.50;;;;;;;;;;5071552;28;20112;-74
2023/04/09 03:50:22;;;;;;;47.63;29.80;;;;;;;;;;5072465;28;20124;-75
2023/04/09 03:52:48;;;;;;;42.30;27.30;;;;;;;;;;5072784;28;20434;-75
2023/04/09 03:55:14;;;;;;;47.53;28.88;;;;;;;;;;5071293;28;20017;-74
2023/04/09 03:57:40;;;;;;;52.65;31.17;;;;;;;;;;5071617;28;20039;-74
2023/04/09 04:00:07;;;;;;;43.80;27.27;;;;;;;;;;5072352;28;20028;-74
2023/04/09 04:02:33;;;;;;;48.30;29.92;;;;;;;;;;5072966;28;20032;-73
2023/04/09 04:04:59;;;;;;;45.72;29.75;;;;;;;;;;5072410;28;20479;-73
2023/04/09 04:07:26;;;;;;;40.25;28.50;;;;;;;;;;5071255;28;20032;-73
2023/04/09 04:09:51;;;;;;;46.97;29.35;;;;;;;;;;5072281;28;20032;-73
2023/04/09 04:12:17;;;;;;;46.53;28.30;;;;;;;;;;5072561;28;20028;-73
2023/04/09 04:14:44;;;;;;;46.22;29.52;;;;;;;;;;5072232;28;20032;-72
2023/04/09 04:17:10;;;;;;;45.85;27.48;;;;;;;;;;5071281;28;20032;-73
2023/04/09 04:19:36;;;;;;;46.08;28.73;;;;;;;;;;5072297;28;20024;-74
2023/04/09 04:22:02;;;;;;;45.30;29.58;;;;;;;;;;5072155;28;20020;-73
2023/04/09 04:24:28;;;;;;;40.50;27.23;;;;;;;;;;5072090;28;20055;-74
2023/04/09 04:26:55;;;;;;;43.55;27.95;;;;;;;;;;5071803;28;20013;-74
2023/04/09 04:29:21;;;;;;;44.30;27.67;;;;;;;;;;5070813;28;20025;-74
2023/04/09 04:31:47;;;;;;;46.67;27.83;;;;;;;;;;5071879;28;20086;-74
2023/04/09 04:34:13;;;;;;;43.75;27.85;;;;;;;;;;5071882;28;20084;-73
2023/04/09 04:36:39;;;;;;;47.63;29.67;;;;;;;;;;5071759;28;20096;-74
2023/04/09 04:39:05;;;;;;;48.08;30.92;;;;;;;;;;5070899;28;20051;-73
2023/04/09 04:41:31;;;;;;;44.10;27.13;;;;;;;;;;5071735;28;20017;-74
2023/04/09 04:43:57;;;;;;;47.95;29.45;;;;;;;;;;5071526;28;20027;-74
2023/04/09 04:46:23;;;;;;;43.72;27.75;;;;;;;;;;5071906;28;20107;-74
2023/04/09 04:48:49;;;;;;;45.72;28.27;;;;;;;;;;5070611;28;20036;-74
2023/04/09 04:51:15;;;;;;;45.78;28.77;;;;;;;;;;5071664;28;20402;-74
2023/04/09 04:53:41;;;;;;;44.92;29.10;;;;;;;;;;5071655;28;20033;-74
2023/04/09 04:56:11;;;;;;;39.95;26.35;;;;;;;;;;5071692;28;20024;-74
2023/04/09 04:58:37;;;;;;;38.65;25.67;;;;;;;;;;5071318;28;20548;-73
2023/04/09 05:01:03;;;;;;;43.17;28.48;;;;;;;;;;5071493;28;20020;-73
2023/04/09 05:03:30;;;;;;;46.90;29.05;;;;;;;;;;5071702;28;20036;-73
2023/04/09 05:05:56;;;;;;;41.50;28.08;;;;;;;;;;5086896;28;20033;-73
2023/04/09 05:08:22;;;;;;;43.97;27.75;;;;;;;;;;5070669;28;20059;-73
2023/04/09 05:10:50;;;;;;;43.40;28.25;;;;;;;;;;5071486;28;20104;-71
2023/04/09 05:13:16;;;;;;;41.67;28.27;;;;;;;;;;5071209;28;20494;-72
2023/04/09 05:15:42;;;;;;;42.17;28.25;;;;;;;;;;5071279;28;20032;-72
2023/04/09 05:18:08;;;;;;;42.13;28.60;;;;;;;;;;5070665;28;20031;-73
2023/04/09 05:20:34;;;;;;;40.15;26.77;;;;;;;;;;5071382;28;20052;-73
2023/04/09 05:23:00;;;;;;;41.22;25.83;;;;;;;;;;5071493;28;20371;-73
2023/04/09 05:25:26;;;;;;;40.05;26.95;;;;;;;;;;5071383;28;20017;-74
2023/04/09 05:27:52;;;;;;;40.08;26.30;;;;;;;;;;5070472;28;20020;-73
2023/04/09 05:30:18;;;;;;;38.42;25.50;;;;;;;;;;5071385;28;20021;-73
2023/04/09 05:32:44;;;;;;;37.78;26.20;;;;;;;;;;5071257;28;20029;-71
2023/04/09 05:35:10;;;;;;;35.35;25.02;;;;;;;;;;5071551;28;20051;-73
2023/04/09 05:37:37;;;;;;;36.92;25.55;;;;;;;;;;5070474;28;20475;-73
2023/04/09 05:40:03;;;;;;;32.65;22.73;;;;;;;;;;5074223;28;20021;-73
2023/04/09 05:42:29;;;;;;;33.40;23.88;;;;;;;;;;5075195;28;20032;-74
2023/04/09 05:44:55;;;;;;;32.92;24.15;;;;;;;;;;5075554;28;20024;-74
2023/04/09 05:47:21;;;;;;;31.33;21.88;;;;;;;;;;5074493;28;20024;-74
2023/04/09 05:49:47;;;;;;;29.17;21.38;;;;;;;;;;5076558;28;20475;-73
2023/04/09 05:52:14;;;;;;;33.53;23.05;;;;;;;;;;5073920;28;20115;-73
2023/04/09 05:54:40;;;;;;;24.35;18.38;;;;;;;;;;5075115;28;20047;-73
2023/04/09 05:57:06;;;;;;;27.67;20.38;;;;;;;;;;5074322;28;20090;-72
2023/04/09 05:59:33;;;;;;;23.67;18.98;;;;;;;;;;5074907;28;20103;-70
2023/04/09 06:01:59;;;;;;;22.45;18.42;;;;;;;;;;5075039;28;20402;-73
2023/04/09 06:04:25;;;;;;;24.75;18.90;;;;;;;;;;5074612;28;20021;-73
2023/04/09 06:06:51;;;;;;;28.33;20.55;;;;;;;;;;5074617;28;20025;-73
2023/04/09 06:09:17;;;;;;;23.88;19.52;;;;;;;;;;5073777;28;20044;-72
2023/04/09 06:11:43;;;;;;;22.80;18.70;;;;;;;;;;5074477;28;20107;-72
2023/04/09 06:14:11;;;;;;;21.27;18.17;;;;;;;;;;5074430;28;20027;-73
2023/04/09 06:16:40;;;;;;;22.25;19.27;;;;;;;;;;5075078;28;20039;-72
2023/04/09 06:19:06;;;;;;;21.17;18.95;;;;;;;;;;5073755;28;20021;-73
2023/04/09 06:21:32;;;;;;;24.05;19.08;;;;;;;;;;5074575;28;20047;-72
2023/04/09 06:23:58;;;;;;;23.17;19.02;;;;;;;;;;5074624;28;20422;-73
2023/04/09 06:26:24;;;;;;;21.85;18.52;;;;;;;;;;5074318;28;20089;-73
2023/04/09 06:28:51;;;;;;;20.10;17.83;;;;;;;;;;5073274;28;20088;-72
2023/04/09 06:31:17;;;;;;;22.08;18.42;;;;;;;;;;5074196;28;20371;-72
2023/04/09 06:33:43;;;;;;;21.20;17.40;;;;;;;;;;5074132;28;20025;-73
2023/04/09 06:36:09;;;;;;;20.50;18.30;;;;;;;;;;5074155;28;20032;-73
2023/04/09 06:38:35;;;;;;;22.52;18.17;;;;;;;;;;5074619;28;20406;-73
2023/04/09 06:41:01;;;;;;;20.85;17.40;;;;;;;;;;5074189;28;20025;-72
2023/04/09 06:43:27;;;;;;;23.75;20.00;;;;;;;;;;5074145;28;20028;-72
2023/04/09 06:45:56;;;;;;;20.50;18.30;;;;;;;;;;5073780;28;20024;-73
2023/04/09 06:48:22;;;;;;;20.23;17.40;;;;;;;;;;5071507;28;20025;-73
2023/04/09 06:50:48;;;;;;;19.75;17.73;;;;;;;;;;5073057;28;20017;-73
2023/04/09 06:53:15;;;;;;;23.98;20.60;;;;;;;;;;5073589;28;20052;-72
2023/04/09 06:55:42;;;;;;;25.75;22.08;;;;;;;;;;5073701;28;20047;-72
2023/04/09 06:58:07;;;;;;;23.40;20.85;;;;;;;;;;5071487;28;20043;-72
2023/04/09 07:00:34;;;;;;;21.30;19.00;;;;;;;;;;5073827;28;20021;-71
2023/04/09 07:03:00;;;;;;;22.23;19.33;;;;;;;;;;5073830;28;20095;-71
2023/04/09 07:05:26;;;;;;;24.98;19.98;;;;;;;;;;5072341;28;20382;-71
2023/04/09 07:07:52;;;;;;;26.05;21.30;;;;;;;;;;5072820;28;20054;-71
2023/04/09 07:10:18;;;;;;;26.05;21.52;;;;;;;;;;5088691;28;20031;-72
2023/04/09 07:12:44;;;;;;;22.52;19.85;;;;;;;;;;5093833;28;20024;-72
2023/04/09 07:15:10;;;;;;;26.05;22.08;;;;;;;;;;5092130;28;20035;-72
2023/04/09 07:17:36;;;;;;;26.35;21.08;;;;;;;;;;5075685;28;20033;-71
2023/04/09 07:20:05;;;;;;;27.42;21.42;;;;;;;;;;5073698;28;20367;-72
2023/04/09 07:22:31;;;;;;;25.90;20.63;;;;;;;;;;5073466;28;20048;-72
2023/04/09 07:24:57;;;;;;;25.23;21.35;;;;;;;;;;5073705;28;20016;-73
2023/04/09 07:27:24;;;;;;;25.50;20.70;;;;;;;;;;5073070;28;20141;-73
2023/04/09 07:29:50;;;;;;;24.58;21.20;;;;;;;;;;5073727;28;20642;-74
2023/04/09 07:32:16;;;;;;;23.52;20.92;;;;;;;;;;5073425;28;20021;-72
2023/04/09 07:34:43;;;;;;;23.92;20.55;;;;;;;;;;5073594;28;20421;-72
2023/04/09 07:37:09;;;;;;;26.48;21.98;;;;;;;;;;5070821;28;20031;-70
2023/04/09 07:39:36;;;;;;;26.90;22.33;;;;;;;;;;5072603;28;20102;-72
2023/04/09 07:42:03;;;;;;;28.60;22.67;;;;;;;;;;5071486;28;20028;-71
2023/04/09 07:44:33;;;;;;;26.38;21.65;;;;;;;;;;5072748;28;20092;-72
2023/04/09 07:46:59;;;;;;;29.48;22.92;;;;;;;;;;5072415;28;20051;-70
2023/04/09 07:49:25;;;;;;;28.67;23.25;;;;;;;;;;5071842;28;20040;-72
2023/04/09 07:51:51;;;;;;;26.27;22.17;;;;;;;;;;5072665;28;20475;-72
2023/04/09 07:54:19;;;;;;;33.53;23.65;;;;;;;;;;5073027;28;20375;-73
2023/04/09 07:56:45;;;;;;;27.02;21.38;;;;;;;;;;5072773;28;20086;-72
2023/04/09 07:59:14;;;;;;;26.85;21.75;;;;;;;;;;5072192;28;20035;-71
2023/04/09 08:01:40;;;;;;;24.17;20.73;;;;;;;;;;5072674;28;20474;-72
2023/04/09 08:04:06;;;;;;;22.00;19.10;;;;;;;;;;5072519;28;20494;-72
2023/04/09 08:06:32;;;;;;;21.23;18.48;;;;;;;;;;5072548;28;20471;-73
2023/04/09 08:08:58;;;;;;;20.33;16.58;;;;;;;;;;5071541;28;20158;-72
2023/04/09 08:11:24;;;;;;;19.73;16.48;;;;;;;;;;5072140;28;20028;-72
2023/04/09 08:13:51;;;;;;;16.65;14.88;;;;;;;;;;5072217;28;20543;-72
2023/04/09 08:16:18;;;;;;;23.02;20.63;;;;;;;;;;5072196;28;20109;-72
2023/04/09 08:18:44;;;;;;;23.48;21.08;;;;;;;;;;5071272;28;20074;-72
2023/04/09 08:21:10;;;;;;;24.10;20.52;;;;;;;;;;5072002;28;20028;-72
2023/04/09 08:23:36;;;;;;;25.17;20.90;;;;;;;;;;5072071;28;20016;-72
2023/04/09 08:26:02;;;;;;;22.85;20.15;;;;;;;;;;5072020;28;20021;-72
2023/04/09 08:28:28;;;;;;;24.42;20.73;;;;;;;;;;5071099;28;20028;-72
2023/04/09 08:30:55;;;;;;;23.98;19.85;;;;;;;;;;5071659;28;20111;-72
2023/04/09 08:33:21;;;;;;;22.67;18.65;;;;;;;;;;5071522;28;20139;-72
2023/04/09 08:38:51;;;;;;;22.02;18.20;;;;;;;;;;5070985;28;20089;-72
2023/04/09 08:41:23;;;;;;;22.73;19.55;;;;;;;;;;5071868;28;20482;-71
2023/04/09 08:43:50;;;;;;;25.05;19.75;;;;;;;;;;5070389;28;20532;-73
2023/04/09 08:46:17;;;;;;;22.50;20.02;;;;;;;;;;5071590;28;20017;-72
2023/04/09 08:48:44;;;;;;;21.90;18.88;;;;;;;;;;5070959;28;20062;-75
2023/04/09 08:51:17;;;;;;;21.63;19.05;;;;;;;;;;5071816;28;20470;-71
2023/04/09 08:53:46;;;;;;;23.33;19.77;;;;;;;;;;5072224;28;20503;-71
2023/04/09 08:56:12;;;;;;;25.20;21.30;;;;;;;;;;5071647;28;20035;-72
2023/04/09 08:58:41;;;;;;;25.15;21.60;;;;;;;;;;5070843;28;20048;-72
2023/04/09 09:01:17;;;;;;;27.88;21.92;;;;;;;;;;5071708;28;20024;-72
2023/04/09 09:04:05;;;;;;;25.88;21.50;;;;;;;;;;5071482;28;20390;-72
2023/04/09 09:06:32;;;;;;;28.63;22.17;;;;;;;;;;5071264;28;20027;-71
2023/04/09 09:09:14;;;;;;;23.20;19.60;;;;;;;;;;5070819;28;20048;-72
2023/04/09 09:11:44;;;;;;;25.50;21.20;;;;;;;;;;5071485;28;20111;-71
2023/04/09 09:14:11;;;;;;;28.38;22.30;;;;;;;;;;5071027;28;20027;-71
2023/04/09 09:17:02;;;;;;;27.85;22.38;;;;;;;;;;5071406;28;20028;-71
2023/04/09 09:19:29;;;;;;;28.23;21.95;;;;;;;;;;5068142;28;20051;-71
2023/04/09 09:21:56;;;;;;;27.08;22.13;;;;;;;;;;5071236;28;20024;-71
2023/04/09 09:24:22;;;;;;;26.90;22.05;;;;;;;;;;5071106;28;20047;-71
2023/04/09 09:26:49;;;;;;;25.55;21.20;;;;;;;;;;5071038;28;20024;-72
2023/04/09 09:29:15;;;;;;;25.98;21.05;;;;;;;;;;5070123;28;20024;-72
2023/04/09 09:31:48;;;;;;;25.42;21.45;;;;;;;;;;5071011;28;20030;-72
2023/04/09 09:37:27;;;;;;;24.77;19.90;;;;;;;;;;5070292;28;20111;-72
2023/04/09 09:39:54;;;;;;;28.80;21.55;;;;;;;;;;5070727;28;20047;-72
2023/04/09 09:42:20;;;;;;;24.60;20.63;;;;;;;;;;5071135;28;20391;-72
2023/04/09 09:44:46;;;;;;;23.33;19.05;;;;;;;;;;5071180;28;20113;-72
2023/04/09 09:47:14;;;;;;;24.75;21.45;;;;;;;;;;5070360;28;20042;-72
2023/04/09 09:49:40;;;;;;;25.63;20.95;;;;;;;;;;5070620;28;20036;-72
2023/04/09 09:52:08;;;;;;;27.13;21.65;;;;;;;;;;5070916;28;20490;-72
2023/04/09 09:54:40;;;;;;;23.95;21.30;;;;;;;;;;5070597;28;20064;-72
2023/04/09 09:57:07;;;;;;;23.85;20.95;;;;;;;;;;5070391;28;20145;-71
2023/04/09 09:59:36;;;;;;;24.95;21.15;;;;;;;;;;5070477;28;20100;-72
2023/04/09 10:02:06;;;;;;;26.13;21.13;;;;;;;;;;5071077;28;20027;-72
2023/04/09 10:04:36;;;;;;;29.52;23.75;;;;;;;;;;5071236;28;20020;-72
2023/04/09 10:07:04;;;;;;;27.08;21.83;;;;;;;;;;5070560;28;20020;-71
2023/04/09 10:09:31;;;;;;;25.30;20.85;;;;;;;;;;5070746;28;20116;-72
2023/04/09 10:11:58;;;;;;;27.52;22.45;;;;;;;;;;5071313;28;20416;-72
2023/04/09 10:14:26;;;;;;;24.58;20.25;;;;;;;;;;5071086;28;20028;-72
2023/04/09 10:20:13;;;;;;;24.73;19.25;;;;;;;;;;5070690;28;20051;-72
2023/04/09 10:25:42;;;;;;;23.33;19.40;;;;;;;;;;5071339;28;20097;-72
2023/04/09 10:28:16;;;;;;;23.60;19.38;;;;;;;;;;5073733;28;20028;-71
2023/04/09 10:30:43;;;;;;;25.10;20.80;;;;;;;;;;5074381;28;20024;-71
2023/04/09 10:33:09;;;;;;;24.02;19.83;;;;;;;;;;5074054;28;20031;-72
2023/04/09 10:35:35;;;;;;;24.42;20.48;;;;;;;;;;5074050;28;20021;-72
2023/04/09 10:38:02;;;;;;;30.70;22.00;;;;;;;;;;5073227;28;20111;-72
2023/04/09 10:40:28;;;;;;;26.63;21.55;;;;;;;;;;5073946;28;20812;-71
2023/04/09 10:42:55;;;;;;;27.25;22.67;;;;;;;;;;5073908;28;20461;-71
2023/04/09 10:45:21;;;;;;;27.55;21.67;;;;;;;;;;5074051;28;20107;-71
2023/04/09 10:47:52;;;;;;;30.10;23.45;;;;;;;;;;5072970;28;20074;-72
2023/04/09 10:50:26;;;;;;;28.67;22.30;;;;;;;;;;5073922;28;20500;-72
2023/04/09 10:52:53;;;;;;;28.70;23.77;;;;;;;;;;5073656;28;20040;-72
2023/04/09 10:55:37;;;;;;;29.00;22.77;;;;;;;;;;5073972;28;20157;-72
2023/04/09 10:58:07;;;;;;;25.63;20.98;;;;;;;;;;5072890;28;20028;-72
2023/04/09 11:00:36;;;;;;;26.02;22.63;;;;;;;;;;5074190;28;20550;-72
2023/04/09 11:03:03;;;;;;;29.85;23.42;;;;;;;;;;5073668;28;20035;-72
2023/04/09 11:05:33;;;;;;;29.80;24.42;;;;;;;;;;5073547;28;20025;-72
2023/04/09 11:08:00;;;;;;;29.90;24.25;;;;;;;;;;5072971;28;20393;-72
2023/04/09 11:10:27;;;;;;;28.70;22.75;;;;;;;;;;5072356;28;20029;-72
2023/04/09 11:12:53;;;;;;;28.92;22.63;;;;;;;;;;5073519;28;20020;-72
2023/04/09 11:15:19;;;;;;;27.23;22.80;;;;;;;;;;5072232;28;20029;-72
2023/04/09 11:17:46;;;;;;;26.80;22.27;;;;;;;;;;5072437;28;20064;-72
2023/04/09 11:20:33;;;;;;;24.45;20.27;;;;;;;;;;5072388;28;20028;-72
2023/04/09 11:23:02;;;;;;;26.77;22.20;;;;;;;;;;5073467;28;20021;-72
2023/04/09 11:25:29;;;;;;;27.92;23.00;;;;;;;;;;5073295;28;20017;-72
2023/04/09 11:27:55;;;;;;;29.92;23.63;;;;;;;;;;5072494;28;20135;-71
2023/04/09 11:30:21;;;;;;;29.30;23.77;;;;;;;;;;5072896;28;20082;-71
2023/04/09 11:32:48;;;;;;;26.63;22.63;;;;;;;;;;5073331;28;20024;-72
2023/04/09 11:35:17;;;;;;;26.77;22.92;;;;;;;;;;5073130;28;20052;-71
2023/04/09 11:37:44;;;;;;;31.35;24.30;;;;;;;;;;5071652;28;20440;-72
2023/04/09 11:40:17;;;;;;;29.60;22.88;;;;;;;;;;5072979;28;20020;-72
2023/04/09 11:42:44;;;;;;;50.80;36.75;;;;;;;;;;5073131;28;20427;-71
2023/04/09 11:45:11;;;;;;;27.13;21.20;;;;;;;;;;5073155;28;20100;-72
2023/04/09 11:47:38;;;;;;;26.60;21.30;;;;;;;;;;5072353;28;20425;-72
2023/04/09 11:50:06;;;;;;;24.50;20.83;;;;;;;;;;5073988;28;20043;-72
2023/04/09 11:52:34;;;;;;;23.83;20.45;;;;;;;;;;5072779;28;20067;-72
2023/04/09 11:55:00;;;;;;;26.30;22.38;;;;;;;;;;5073767;28;20163;-72
2023/04/09 11:57:36;;;;;;;26.52;22.00;;;;;;;;;;5072966;28;20496;-72
2023/04/09 12:00:07;;;;;;;27.02;21.10;;;;;;;;;;5073650;28;20070;-73
2023/04/09 12:05:36;;;;;;;28.40;22.10;;;;;;;;;;5072888;28;20091;-72
2023/04/09 12:08:03;;;;;;;25.98;20.92;;;;;;;;;;5071961;28;20029;-72
2023/04/09 12:10:33;;;;;;;26.55;21.17;;;;;;;;;;5082141;28;20009;-73
2023/04/09 12:13:02;;;;;;;24.38;20.55;;;;;;;;;;5076071;28;20030;-73
2023/04/09 12:15:31;;;;;;;26.27;21.23;;;;;;;;;;5072416;28;20118;-72
2023/04/09 12:17:57;;;;;;;24.75;19.48;;;;;;;;;;5071476;28;20032;-70
2023/04/09 12:20:39;;;;;;;21.38;17.95;;;;;;;;;;5072008;28;20021;-71
2023/04/09 12:23:05;;;;;;;22.70;18.63;;;;;;;;;;5072103;28;20100;-71
2023/04/09 12:25:34;;;;;;;23.52;18.75;;;;;;;;;;5070517;28;20060;-72
2023/04/09 12:28:00;;;;;;;22.80;18.65;;;;;;;;;;5071426;28;20656;-71
2023/04/09 12:30:27;;;;;;;23.17;19.23;;;;;;;;;;5071671;28;20479;-71
2023/04/09 12:32:53;;;;;;;21.23;17.40;;;;;;;;;;5070244;28;20020;-71
2023/04/09 12:35:20;;;;;;;19.95;17.58;;;;;;;;;;5072070;28;20028;-73
2023/04/09 12:37:46;;;;;;;19.25;16.05;;;;;;;;;;5070630;28;20035;-71
2023/04/09 12:40:15;;;;;;;19.25;15.88;;;;;;;;;;5070530;28;20028;-73
2023/04/09 12:42:41;;;;;;;18.95;15.90;;;;;;;;;;5071610;28;20447;-71
2023/04/09 12:45:12;;;;;;;23.80;17.33;;;;;;;;;;5071365;28;20447;-70
2023/04/09 12:47:41;;;;;;;23.17;18.50;;;;;;;;;;5069580;28;20371;-69
2023/04/09 12:50:08;;;;;;;21.48;16.75;;;;;;;;;;5070880;28;20029;-71
2023/04/09 12:52:34;;;;;;;21.85;18.33;;;;;;;;;;5071430;28;20021;-72
2023/04/09 12:55:00;;;;;;;19.73;16.75;;;;;;;;;;5071858;28;20460;-73
2023/04/09 12:57:27;;;;;;;22.40;18.30;;;;;;;;;;5070607;28;20020;-73
2023/04/09 12:59:53;;;;;;;22.30;18.48;;;;;;;;;;5071030;28;20078;-71
2023/04/09 13:02:20;;;;;;;19.30;16.65;;;;;;;;;;5070172;28;20512;-71
2023/04/09 13:04:46;;;;;;;20.98;17.98;;;;;;;;;;5069922;28;20056;-71
2023/04/09 13:07:14;;;;;;;21.20;17.13;;;;;;;;;;5070770;28;20024;-71
2023/04/09 13:09:40;;;;;;;21.30;17.20;;;;;;;;;;5071154;28;20025;-71
2023/04/09 13:12:06;;;;;;;23.13;18.75;;;;;;;;;;5071078;28;20077;-72
2023/04/09 13:14:32;;;;;;;22.05;18.25;;;;;;;;;;5070941;28;20063;-72
2023/04/09 13:17:10;;;;;;;24.95;18.02;;;;;;;;;;5071104;28;20031;-70
2023/04/09 13:19:36;;;;;;;20.00;17.38;;;;;;;;;;5070977;28;20024;-72
2023/04/09 13:22:05;;;;;;;19.23;16.77;;;;;;;;;;5071470;28;20032;-72
2023/04/09 13:24:31;;;;;;;18.73;15.65;;;;;;;;;;5071433;28;20033;-72
2023/04/09 13:26:57;;;;;;;19.92;16.00;;;;;;;;;;5071760;28;20071;-71
2023/04/09 13:29:25;;;;;;;18.27;15.85;;;;;;;;;;5070801;28;20509;-73
2023/04/09 13:31:51;;;;;;;20.38;16.73;;;;;;;;;;5071116;28;20064;-72
2023/04/09 13:34:17;;;;;;;20.92;17.17;;;;;;;;;;5071287;28;20113;-72
2023/04/09 13:36:43;;;;;;;19.35;16.10;;;;;;;;;;5071372;28;20063;-72
2023/04/09 13:39:09;;;;;;;20.20;16.30;;;;;;;;;;5070169;28;20389;-72
2023/04/09 13:41:35;;;;;;;19.02;15.63;;;;;;;;;;5070978;28;20099;-71
2023/04/09 13:44:01;;;;;;;21.38;16.65;;;;;;;;;;5070989;28;20025;-71
2023/04/09 13:46:27;;;;;;;21.25;17.13;;;;;;;;;;5071093;28;20066;-71
2023/04/09 13:48:53;;;;;;;20.48;16.92;;;;;;;;;;5069950;28;20028;-71
2023/04/09 13:51:20;;;;;;;22.80;18.25;;;;;;;;;;5070914;28;20024;-71
2023/04/09 13:53:47;;;;;;;23.30;18.85;;;;;;;;;;5071301;28;20438;-70
2023/04/09 13:56:13;;;;;;;22.88;19.25;;;;;;;;;;5070784;28;20029;-72
2023/04/09 13:58:40;;;;;;;21.45;18.75;;;;;;;;;;5068674;28;20363;-72
2023/04/09 14:01:06;;;;;;;24.40;19.65;;;;;;;;;;5074032;28;20483;-72
2023/04/09 14:03:32;;;;;;;25.48;20.52;;;;;;;;;;5074802;28;20024;-73
2023/04/09 14:05:58;;;;;;;24.50;20.08;;;;;;;;;;5074886;28;20017;-72
2023/04/09 14:08:24;;;;;;;22.75;18.83;;;;;;;;;;5074118;28;20036;-72
2023/04/09 14:10:50;;;;;;;22.85;19.27;;;;;;;;;;5074577;28;20035;-74
2023/04/09 14:13:16;;;;;;;23.52;18.13;;;;;;;;;;5075295;28;20027;-71
2023/04/09 14:15:44;;;;;;;23.77;19.58;;;;;;;;;;5075803;28;20020;-73
2023/04/09 14:18:10;;;;;;;24.38;20.30;;;;;;;;;;5074894;28;20043;-72
2023/04/09 14:20:37;;;;;;;24.95;19.85;;;;;;;;;;5075219;28;20028;-73
2023/04/09 14:23:03;;;;;;;24.65;19.48;;;;;;;;;;5075092;28;20129;-72
2023/04/09 14:25:29;;;;;;;26.05;20.65;;;;;;;;;;5074790;28;20095;-72
2023/04/09 14:27:55;;;;;;;22.80;19.67;;;;;;;;;;5074070;28;20025;-72
2023/04/09 14:30:22;;;;;;;22.48;17.60;;;;;;;;;;5074515;28;20024;-72
2023/04/09 14:32:48;;;;;;;20.45;16.45;;;;;;;;;;5074523;28;20029;-74